sensor_id;sensor_type;location;lat;lon;timestamp;P1;durP1;ratioP1;P2;durP2;ratioP2
65459;SDS011;52058;49.822;6.754;2023-04-24T00:02:25;1.10;;;0.77;;
65459;SDS011;52058;49.822;6.754;2023-04-24T00:04:52;1.30;;;0.90;;
65459;SDS011;52058;49.822;6.754;2023-04-24T00:07:19;1.10;;;0.90;;
65459;SDS011;52058;49.822;6.754;2023-04-24T00:09:46;0.80;;;0.77;;
65459;SDS011;52058;49.822;6.754;2023-04-24T00:12:12;1.70;;;0.82;;
65459;SDS011;52058;49.822;6.754;2023-04-24T00:14:39;2.20;;;1.00;;
65459;SDS011;52058;49.822;6.754;2023-04-24T00:17:05;1.48;;;1.00;;
65459;SDS011;52058;49.822;6.754;2023-04-24T00:19:33;0.93;;;0.85;;
65459;SDS011;52058;49.822;6.754;2023-04-24T00:22:02;1.23;;;0.80;;
65459;SDS011;52058;49.822;6.754;2023-04-24T00:24:29;1.10;;;0.70;;
65459;SDS011;52058;49.822;6.754;2023-04-24T00:26:55;0.65;;;0.65;;
65459;SDS011;52058;49.822;6.754;2023-04-24T00:29:25;1.88;;;0.80;;
65459;SDS011;52058;49.822;6.754;2023-04-24T00:31:53;0.77;;;0.70;;
65459;SDS011;52058;49.822;6.754;2023-04-24T00:34:20;0.80;;;0.70;;
65459;SDS011;52058;49.822;6.754;2023-04-24T00:36:50;0.70;;;0.70;;
65459;SDS011;52058;49.822;6.754;2023-04-24T00:39:17;1.20;;;1.10;;
65459;SDS011;52058;49.822;6.754;2023-04-24T00:41:43;1.55;;;0.75;;
65459;SDS011;52058;49.822;6.754;2023-04-24T00:44:11;0.70;;;0.70;;
65459;SDS011;52058;49.822;6.754;2023-04-24T00:46:38;0.77;;;0.70;;
65459;SDS011;52058;49.822;6.754;2023-04-24T00:49:04;0.80;;;0.80;;
65459;SDS011;52058;49.822;6.754;2023-04-24T00:51:32;0.70;;;0.70;;
65459;SDS011;52058;49.822;6.754;2023-04-24T00:54:01;0.60;;;0.60;;
65459;SDS011;52058;49.822;6.754;2023-04-24T00:56:27;0.70;;;0.70;;
65459;SDS011;52058;49.822;6.754;2023-04-24T00:58:54;1.20;;;0.70;;
65459;SDS011;52058;49.822;6.754;2023-04-24T01:01:22;0.70;;;0.70;;
65459;SDS011;52058;49.822;6.754;2023-04-24T01:03:48;0.80;;;0.80;;
65459;SDS011;52058;49.822;6.754;2023-04-24T01:06:16;0.80;;;0.80;;
65459;SDS011;52058;49.822;6.754;2023-04-24T01:08:44;1.42;;;0.80;;
65459;SDS011;52058;49.822;6.754;2023-04-24T01:11:13;1.23;;;1.00;;
65459;SDS011;52058;49.822;6.754;2023-04-24T01:13:40;1.42;;;0.88;;
65459;SDS011;52058;49.822;6.754;2023-04-24T01:16:07;1.08;;;0.98;;
65459;SDS011;52058;49.822;6.754;2023-04-24T01:18:36;2.75;;;1.60;;
65459;SDS011;52058;49.822;6.754;2023-04-24T01:21:03;1.60;;;1.50;;
65459;SDS011;52058;49.822;6.754;2023-04-24T01:23:31;2.40;;;1.70;;
65459;SDS011;52058;49.822;6.754;2023-04-24T01:26:01;1.70;;;1.60;;
65459;SDS011;52058;49.822;6.754;2023-04-24T01:28:28;1.55;;;1.42;;
65459;SDS011;52058;49.822;6.754;2023-04-24T01:30:55;2.78;;;1.77;;
65459;SDS011;52058;49.822;6.754;2023-04-24T01:33:24;2.30;;;1.67;;
65459;SDS011;52058;49.822;6.754;2023-04-24T01:35:51;2.40;;;1.70;;
65459;SDS011;52058;49.822;6.754;2023-04-24T01:38:18;3.45;;;2.00;;
65459;SDS011;52058;49.822;6.754;2023-04-24T01:40:46;2.95;;;1.60;;
65459;SDS011;52058;49.822;6.754;2023-04-24T01:43:13;3.10;;;2.13;;
65459;SDS011;52058;49.822;6.754;2023-04-24T01:45:40;1.98;;;1.77;;
65459;SDS011;52058;49.822;6.754;2023-04-24T01:48:06;2.90;;;1.80;;
65459;SDS011;52058;49.822;6.754;2023-04-24T01:50:33;2.15;;;1.95;;
65459;SDS011;52058;49.822;6.754;2023-04-24T01:53:00;3.67;;;2.25;;
65459;SDS011;52058;49.822;6.754;2023-04-24T01:55:26;4.53;;;2.25;;
65459;SDS011;52058;49.822;6.754;2023-04-24T01:57:55;2.30;;;2.10;;
65459;SDS011;52058;49.822;6.754;2023-04-24T02:00:22;3.83;;;2.47;;
65459;SDS011;52058;49.822;6.754;2023-04-24T02:02:49;2.60;;;2.13;;
65459;SDS011;52058;49.822;6.754;2023-04-24T02:05:16;3.45;;;2.65;;
65459;SDS011;52058;49.822;6.754;2023-04-24T02:07:45;2.88;;;2.45;;
65459;SDS011;52058;49.822;6.754;2023-04-24T02:10:12;2.63;;;2.40;;
65459;SDS011;52058;49.822;6.754;2023-04-24T02:12:38;4.00;;;2.53;;
65459;SDS011;52058;49.822;6.754;2023-04-24T02:15:06;4.10;;;2.42;;
65459;SDS011;52058;49.822;6.754;2023-04-24T02:17:33;2.83;;;2.53;;
65459;SDS011;52058;49.822;6.754;2023-04-24T02:20:00;2.50;;;2.30;;
65459;SDS011;52058;49.822;6.754;2023-04-24T02:22:27;3.55;;;2.30;;
65459;SDS011;52058;49.822;6.754;2023-04-24T02:24:53;3.00;;;2.33;;
65459;SDS011;52058;49.822;6.754;2023-04-24T02:27:20;3.55;;;2.47;;
65459;SDS011;52058;49.822;6.754;2023-04-24T02:29:46;3.50;;;2.88;;
65459;SDS011;52058;49.822;6.754;2023-04-24T02:32:14;3.97;;;3.08;;
65459;SDS011;52058;49.822;6.754;2023-04-24T02:34:43;4.45;;;3.30;;
65459;SDS011;52058;49.822;6.754;2023-04-24T02:37:10;3.50;;;3.05;;
65459;SDS011;52058;49.822;6.754;2023-04-24T02:39:36;3.42;;;2.78;;
65459;SDS011;52058;49.822;6.754;2023-04-24T02:42:03;4.53;;;3.30;;
65459;SDS011;52058;49.822;6.754;2023-04-24T02:44:30;3.80;;;3.20;;
65459;SDS011;52058;49.822;6.754;2023-04-24T02:46:57;3.10;;;2.80;;
65459;SDS011;52058;49.822;6.754;2023-04-24T02:49:24;4.50;;;3.13;;
65459;SDS011;52058;49.822;6.754;2023-04-24T02:51:52;5.82;;;3.70;;
65459;SDS011;52058;49.822;6.754;2023-04-24T02:54:18;5.03;;;3.22;;
65459;SDS011;52058;49.822;6.754;2023-04-24T02:56:45;3.90;;;3.38;;
65459;SDS011;52058;49.822;6.754;2023-04-24T02:59:11;6.03;;;3.55;;
65459;SDS011;52058;49.822;6.754;2023-04-24T03:01:40;5.30;;;3.58;;
65459;SDS011;52058;49.822;6.754;2023-04-24T03:04:07;4.47;;;3.85;;
65459;SDS011;52058;49.822;6.754;2023-04-24T03:06:35;6.68;;;4.93;;
65459;SDS011;52058;49.822;6.754;2023-04-24T03:09:03;5.57;;;4.00;;
65459;SDS011;52058;49.822;6.754;2023-04-24T03:11:30;6.10;;;4.10;;
65459;SDS011;52058;49.822;6.754;2023-04-24T03:13:56;5.00;;;3.85;;
65459;SDS011;52058;49.822;6.754;2023-04-24T03:16:23;6.80;;;4.22;;
65459;SDS011;52058;49.822;6.754;2023-04-24T03:18:50;7.03;;;4.28;;
65459;SDS011;52058;49.822;6.754;2023-04-24T03:21:17;6.18;;;4.50;;
65459;SDS011;52058;49.822;6.754;2023-04-24T03:23:45;6.57;;;4.85;;
65459;SDS011;52058;49.822;6.754;2023-04-24T03:26:11;6.93;;;4.47;;
65459;SDS011;52058;49.822;6.754;2023-04-24T03:28:38;7.80;;;5.20;;
65459;SDS011;52058;49.822;6.754;2023-04-24T03:31:04;7.05;;;4.53;;
65459;SDS011;52058;49.822;6.754;2023-04-24T03:33:31;7.07;;;4.75;;
65459;SDS011;52058;49.822;6.754;2023-04-24T03:35:57;6.85;;;4.30;;
65459;SDS011;52058;49.822;6.754;2023-04-24T03:38:24;7.40;;;4.65;;
65459;SDS011;52058;49.822;6.754;2023-04-24T03:40:52;5.63;;;4.40;;
65459;SDS011;52058;49.822;6.754;2023-04-24T03:43:18;7.35;;;4.95;;
65459;SDS011;52058;49.822;6.754;2023-04-24T03:45:45;7.57;;;4.75;;
65459;SDS011;52058;49.822;6.754;2023-04-24T03:48:12;5.68;;;4.57;;
65459;SDS011;52058;49.822;6.754;2023-04-24T03:50:38;5.40;;;4.25;;
65459;SDS011;52058;49.822;6.754;2023-04-24T03:53:05;6.00;;;4.82;;
65459;SDS011;52058;49.822;6.754;2023-04-24T03:55:31;8.00;;;4.95;;
65459;SDS011;52058;49.822;6.754;2023-04-24T03:57:59;6.28;;;5.00;;
65459;SDS011;52058;49.822;6.754;2023-04-24T04:00:26;6.60;;;5.03;;
65459;SDS011;52058;49.822;6.754;2023-04-24T04:02:52;9.40;;;5.00;;
65459;SDS011;52058;49.822;6.754;2023-04-24T04:05:19;7.05;;;5.28;;
65459;SDS011;52058;49.822;6.754;2023-04-24T04:07:46;7.90;;;4.88;;
65459;SDS011;52058;49.822;6.754;2023-04-24T04:10:12;8.13;;;5.20;;
65459;SDS011;52058;49.822;6.754;2023-04-24T04:12:39;7.78;;;5.55;;
65459;SDS011;52058;49.822;6.754;2023-04-24T04:15:07;9.18;;;5.88;;
65459;SDS011;52058;49.822;6.754;2023-04-24T04:17:34;7.05;;;5.22;;
65459;SDS011;52058;49.822;6.754;2023-04-24T04:20:03;8.20;;;5.40;;
65459;SDS011;52058;49.822;6.754;2023-04-24T04:22:33;7.18;;;5.20;;
65459;SDS011;52058;49.822;6.754;2023-04-24T04:25:00;7.65;;;5.70;;
65459;SDS011;52058;49.822;6.754;2023-04-24T04:27:27;8.40;;;5.60;;
65459;SDS011;52058;49.822;6.754;2023-04-24T04:29:57;10.23;;;6.57;;
65459;SDS011;52058;49.822;6.754;2023-04-24T04:32:25;7.50;;;5.80;;
65459;SDS011;52058;49.822;6.754;2023-04-24T04:34:52;9.07;;;5.88;;
65459;SDS011;52058;49.822;6.754;2023-04-24T04:37:19;10.23;;;5.85;;
65459;SDS011;52058;49.822;6.754;2023-04-24T04:39:45;9.23;;;6.70;;
65459;SDS011;52058;49.822;6.754;2023-04-24T04:42:12;7.93;;;5.50;;
65459;SDS011;52058;49.822;6.754;2023-04-24T04:44:40;8.38;;;6.30;;
65459;SDS011;52058;49.822;6.754;2023-04-24T04:47:08;8.30;;;5.50;;
65459;SDS011;52058;49.822;6.754;2023-04-24T04:49:37;7.72;;;6.00;;
65459;SDS011;52058;49.822;6.754;2023-04-24T04:52:03;9.43;;;6.60;;
65459;SDS011;52058;49.822;6.754;2023-04-24T04:54:30;10.10;;;6.65;;
65459;SDS011;52058;49.822;6.754;2023-04-24T04:56:57;9.45;;;6.43;;
65459;SDS011;52058;49.822;6.754;2023-04-24T04:59:23;12.75;;;7.22;;
65459;SDS011;52058;49.822;6.754;2023-04-24T05:01:50;11.00;;;7.32;;
65459;SDS011;52058;49.822;6.754;2023-04-24T05:04:17;9.35;;;6.40;;
65459;SDS011;52058;49.822;6.754;2023-04-24T05:06:45;10.15;;;6.68;;
65459;SDS011;52058;49.822;6.754;2023-04-24T05:09:12;7.50;;;5.90;;
65459;SDS011;52058;49.822;6.754;2023-04-24T05:11:38;9.93;;;6.55;;
65459;SDS011;52058;49.822;6.754;2023-04-24T05:14:05;7.35;;;5.25;;
65459;SDS011;52058;49.822;6.754;2023-04-24T05:16:32;7.03;;;5.28;;
65459;SDS011;52058;49.822;6.754;2023-04-24T05:18:58;6.85;;;5.05;;
65459;SDS011;52058;49.822;6.754;2023-04-24T05:21:25;6.90;;;5.38;;
65459;SDS011;52058;49.822;6.754;2023-04-24T05:23:53;7.97;;;5.53;;
65459;SDS011;52058;49.822;6.754;2023-04-24T05:26:19;8.65;;;5.18;;
65459;SDS011;52058;49.822;6.754;2023-04-24T05:28:47;9.30;;;5.68;;
65459;SDS011;52058;49.822;6.754;2023-04-24T05:31:14;6.63;;;4.90;;
65459;SDS011;52058;49.822;6.754;2023-04-24T05:33:42;6.60;;;5.03;;
65459;SDS011;52058;49.822;6.754;2023-04-24T05:36:09;7.13;;;5.18;;
65459;SDS011;52058;49.822;6.754;2023-04-24T05:38:35;9.02;;;4.90;;
65459;SDS011;52058;49.822;6.754;2023-04-24T05:41:03;6.95;;;4.85;;
65459;SDS011;52058;49.822;6.754;2023-04-24T05:43:30;7.05;;;4.68;;
65459;SDS011;52058;49.822;6.754;2023-04-24T05:45:57;6.45;;;3.83;;
65459;SDS011;52058;49.822;6.754;2023-04-24T05:48:23;6.35;;;4.30;;
65459;SDS011;52058;49.822;6.754;2023-04-24T05:50:50;5.28;;;4.45;;
65459;SDS011;52058;49.822;6.754;2023-04-24T05:53:17;5.78;;;4.40;;
65459;SDS011;52058;49.822;6.754;2023-04-24T05:55:44;5.68;;;4.00;;
65459;SDS011;52058;49.822;6.754;2023-04-24T05:58:12;4.30;;;3.42;;
65459;SDS011;52058;49.822;6.754;2023-04-24T06:00:39;5.45;;;4.00;;
65459;SDS011;52058;49.822;6.754;2023-04-24T06:03:07;6.75;;;4.60;;
65459;SDS011;52058;49.822;6.754;2023-04-24T06:05:34;5.00;;;3.65;;
65459;SDS011;52058;49.822;6.754;2023-04-24T06:08:01;5.32;;;3.88;;
65459;SDS011;52058;49.822;6.754;2023-04-24T06:10:27;6.03;;;3.85;;
65459;SDS011;52058;49.822;6.754;2023-04-24T06:12:54;4.97;;;3.70;;
65459;SDS011;52058;49.822;6.754;2023-04-24T06:15:26;7.47;;;4.05;;
65459;SDS011;52058;49.822;6.754;2023-04-24T06:17:54;5.95;;;4.00;;
65459;SDS011;52058;49.822;6.754;2023-04-24T06:20:20;5.88;;;3.83;;
65459;SDS011;52058;49.822;6.754;2023-04-24T06:22:47;6.55;;;4.05;;
65459;SDS011;52058;49.822;6.754;2023-04-24T06:25:14;5.57;;;3.80;;
65459;SDS011;52058;49.822;6.754;2023-04-24T06:27:40;4.70;;;4.10;;
65459;SDS011;52058;49.822;6.754;2023-04-24T06:30:08;5.07;;;4.05;;
65459;SDS011;52058;49.822;6.754;2023-04-24T06:32:36;4.72;;;3.72;;
65459;SDS011;52058;49.822;6.754;2023-04-24T06:35:03;5.30;;;4.22;;
65459;SDS011;52058;49.822;6.754;2023-04-24T06:37:32;5.30;;;4.15;;
65459;SDS011;52058;49.822;6.754;2023-04-24T06:39:59;6.43;;;4.22;;
65459;SDS011;52058;49.822;6.754;2023-04-24T06:42:25;5.85;;;4.25;;
65459;SDS011;52058;49.822;6.754;2023-04-24T06:44:52;5.85;;;3.97;;
65459;SDS011;52058;49.822;6.754;2023-04-24T06:47:18;5.68;;;3.80;;
65459;SDS011;52058;49.822;6.754;2023-04-24T06:49:46;6.32;;;4.20;;
65459;SDS011;52058;49.822;6.754;2023-04-24T06:52:13;5.90;;;3.63;;
65459;SDS011;52058;49.822;6.754;2023-04-24T06:54:41;6.18;;;3.65;;
65459;SDS011;52058;49.822;6.754;2023-04-24T06:57:08;4.05;;;3.42;;
65459;SDS011;52058;49.822;6.754;2023-04-24T06:59:35;5.03;;;3.65;;
65459;SDS011;52058;49.822;6.754;2023-04-24T07:02:02;4.90;;;4.00;;
65459;SDS011;52058;49.822;6.754;2023-04-24T07:04:29;5.15;;;3.92;;
65459;SDS011;52058;49.822;6.754;2023-04-24T07:06:57;4.57;;;3.70;;
65459;SDS011;52058;49.822;6.754;2023-04-24T07:09:24;6.68;;;4.00;;
65459;SDS011;52058;49.822;6.754;2023-04-24T07:11:51;5.05;;;3.85;;
65459;SDS011;52058;49.822;6.754;2023-04-24T07:14:18;4.47;;;3.55;;
65459;SDS011;52058;49.822;6.754;2023-04-24T07:16:45;4.93;;;3.80;;
65459;SDS011;52058;49.822;6.754;2023-04-24T07:19:12;4.22;;;2.97;;
65459;SDS011;52058;49.822;6.754;2023-04-24T07:21:39;5.80;;;3.53;;
65459;SDS011;52058;49.822;6.754;2023-04-24T07:24:07;6.82;;;4.00;;
65459;SDS011;52058;49.822;6.754;2023-04-24T07:26:36;7.15;;;4.28;;
65459;SDS011;52058;49.822;6.754;2023-04-24T07:29:03;4.70;;;3.60;;
65459;SDS011;52058;49.822;6.754;2023-04-24T07:31:30;5.18;;;3.70;;
65459;SDS011;52058;49.822;6.754;2023-04-24T07:33:56;8.35;;;3.88;;
65459;SDS011;52058;49.822;6.754;2023-04-24T07:36:23;4.38;;;3.38;;
65459;SDS011;52058;49.822;6.754;2023-04-24T07:38:51;4.65;;;4.00;;
65459;SDS011;52058;49.822;6.754;2023-04-24T07:41:19;6.45;;;4.32;;
65459;SDS011;52058;49.822;6.754;2023-04-24T07:43:46;5.03;;;3.85;;
65459;SDS011;52058;49.822;6.754;2023-04-24T07:46:13;7.38;;;4.10;;
65459;SDS011;52058;49.822;6.754;2023-04-24T07:48:39;5.45;;;4.20;;
65459;SDS011;52058;49.822;6.754;2023-04-24T07:51:06;4.97;;;4.13;;
65459;SDS011;52058;49.822;6.754;2023-04-24T07:53:35;5.72;;;4.05;;
65459;SDS011;52058;49.822;6.754;2023-04-24T07:56:01;5.40;;;4.32;;
65459;SDS011;52058;49.822;6.754;2023-04-24T07:58:29;5.85;;;4.70;;
65459;SDS011;52058;49.822;6.754;2023-04-24T08:00:56;5.60;;;4.35;;
65459;SDS011;52058;49.822;6.754;2023-04-24T08:03:22;4.88;;;3.88;;
65459;SDS011;52058;49.822;6.754;2023-04-24T08:05:49;8.15;;;3.97;;
65459;SDS011;52058;49.822;6.754;2023-04-24T08:08:16;4.43;;;3.78;;
65459;SDS011;52058;49.822;6.754;2023-04-24T08:10:43;6.50;;;4.00;;
65459;SDS011;52058;49.822;6.754;2023-04-24T08:13:10;6.25;;;4.30;;
65459;SDS011;52058;49.822;6.754;2023-04-24T08:15:38;4.88;;;3.80;;
65459;SDS011;52058;49.822;6.754;2023-04-24T08:18:05;5.63;;;4.18;;
65459;SDS011;52058;49.822;6.754;2023-04-24T08:20:32;7.32;;;4.30;;
65459;SDS011;52058;49.822;6.754;2023-04-24T08:22:59;6.45;;;4.45;;
65459;SDS011;52058;49.822;6.754;2023-04-24T08:25:26;5.68;;;3.80;;
65459;SDS011;52058;49.822;6.754;2023-04-24T08:27:52;4.90;;;4.05;;
65459;SDS011;52058;49.822;6.754;2023-04-24T08:30:19;4.97;;;3.78;;
65459;SDS011;52058;49.822;6.754;2023-04-24T08:32:47;5.70;;;4.30;;
65459;SDS011;52058;49.822;6.754;2023-04-24T08:35:14;5.70;;;4.05;;
65459;SDS011;52058;49.822;6.754;2023-04-24T08:37:40;6.38;;;4.18;;
65459;SDS011;52058;49.822;6.754;2023-04-24T08:40:10;5.82;;;4.00;;
65459;SDS011;52058;49.822;6.754;2023-04-24T08:42:41;5.35;;;4.18;;
65459;SDS011;52058;49.822;6.754;2023-04-24T08:45:09;4.20;;;3.25;;
65459;SDS011;52058;49.822;6.754;2023-04-24T08:47:36;7.30;;;4.05;;
65459;SDS011;52058;49.822;6.754;2023-04-24T08:50:06;4.95;;;4.25;;
65459;SDS011;52058;49.822;6.754;2023-04-24T08:52:33;7.15;;;4.00;;
65459;SDS011;52058;49.822;6.754;2023-04-24T08:55:01;5.05;;;3.63;;
65459;SDS011;52058;49.822;6.754;2023-04-24T08:57:27;5.30;;;4.53;;
65459;SDS011;52058;49.822;6.754;2023-04-24T08:59:55;8.52;;;4.05;;
65459;SDS011;52058;49.822;6.754;2023-04-24T09:02:25;7.38;;;4.15;;
65459;SDS011;52058;49.822;6.754;2023-04-24T09:04:51;5.38;;;3.90;;
65459;SDS011;52058;49.822;6.754;2023-04-24T09:07:20;4.97;;;3.88;;
65459;SDS011;52058;49.822;6.754;2023-04-24T09:09:50;5.90;;;3.60;;
65459;SDS011;52058;49.822;6.754;2023-04-24T09:12:17;5.28;;;4.13;;
65459;SDS011;52058;49.822;6.754;2023-04-24T09:14:44;5.63;;;3.90;;
65459;SDS011;52058;49.822;6.754;2023-04-24T09:17:11;6.85;;;3.78;;
65459;SDS011;52058;49.822;6.754;2023-04-24T09:19:38;4.93;;;3.70;;
65459;SDS011;52058;49.822;6.754;2023-04-24T09:22:06;5.45;;;3.92;;
65459;SDS011;52058;49.822;6.754;2023-04-24T09:24:35;7.53;;;3.78;;
65459;SDS011;52058;49.822;6.754;2023-04-24T09:27:01;5.20;;;3.92;;
65459;SDS011;52058;49.822;6.754;2023-04-24T09:29:28;5.63;;;3.65;;
65459;SDS011;52058;49.822;6.754;2023-04-24T09:31:56;4.72;;;3.88;;
65459;SDS011;52058;49.822;6.754;2023-04-24T09:34:23;4.88;;;4.03;;
65459;SDS011;52058;49.822;6.754;2023-04-24T09:36:51;5.18;;;3.72;;
65459;SDS011;52058;49.822;6.754;2023-04-24T09:39:18;4.63;;;3.90;;
65459;SDS011;52058;49.822;6.754;2023-04-24T09:41:47;6.68;;;4.07;;
65459;SDS011;52058;49.822;6.754;2023-04-24T09:44:16;6.18;;;4.15;;
65459;SDS011;52058;49.822;6.754;2023-04-24T09:46:45;7.03;;;3.95;;
65459;SDS011;52058;49.822;6.754;2023-04-24T09:49:16;5.90;;;3.55;;
65459;SDS011;52058;49.822;6.754;2023-04-24T09:51:46;5.13;;;4.20;;
65459;SDS011;52058;49.822;6.754;2023-04-24T09:54:13;5.93;;;4.55;;
65459;SDS011;52058;49.822;6.754;2023-04-24T09:56:42;5.95;;;4.43;;
65459;SDS011;52058;49.822;6.754;2023-04-24T09:59:11;6.05;;;4.10;;
65459;SDS011;52058;49.822;6.754;2023-04-24T10:01:38;6.70;;;4.38;;
65459;SDS011;52058;49.822;6.754;2023-04-24T10:04:14;6.80;;;4.43;;
65459;SDS011;52058;49.822;6.754;2023-04-24T10:06:42;6.18;;;4.15;;
65459;SDS011;52058;49.822;6.754;2023-04-24T10:09:09;5.40;;;4.05;;
65459;SDS011;52058;49.822;6.754;2023-04-24T10:11:37;5.95;;;4.32;;
65459;SDS011;52058;49.822;6.754;2023-04-24T10:14:07;6.15;;;4.70;;
65459;SDS011;52058;49.822;6.754;2023-04-24T10:16:37;7.32;;;4.47;;
65459;SDS011;52058;49.822;6.754;2023-04-24T10:19:04;8.52;;;4.60;;
65459;SDS011;52058;49.822;6.754;2023-04-24T10:21:31;4.72;;;4.10;;
65459;SDS011;52058;49.822;6.754;2023-04-24T10:23:58;5.32;;;4.05;;
65459;SDS011;52058;49.822;6.754;2023-04-24T10:26:28;8.02;;;4.45;;
65459;SDS011;52058;49.822;6.754;2023-04-24T10:28:56;5.95;;;3.78;;
65459;SDS011;52058;49.822;6.754;2023-04-24T10:31:23;7.60;;;4.90;;
65459;SDS011;52058;49.822;6.754;2023-04-24T10:33:52;5.82;;;3.88;;
65459;SDS011;52058;49.822;6.754;2023-04-24T10:36:19;7.78;;;4.47;;
65459;SDS011;52058;49.822;6.754;2023-04-24T10:38:48;5.78;;;3.42;;
65459;SDS011;52058;49.822;6.754;2023-04-24T10:41:16;7.55;;;3.85;;
65459;SDS011;52058;49.822;6.754;2023-04-24T10:43:45;5.57;;;3.45;;
65459;SDS011;52058;49.822;6.754;2023-04-24T10:46:16;4.57;;;3.75;;
65459;SDS011;52058;49.822;6.754;2023-04-24T10:51:21;5.10;;;3.08;;
65459;SDS011;52058;49.822;6.754;2023-04-24T10:53:49;5.20;;;3.42;;
65459;SDS011;52058;49.822;6.754;2023-04-24T10:56:16;5.53;;;3.17;;
65459;SDS011;52058;49.822;6.754;2023-04-24T10:58:44;4.47;;;3.45;;
65459;SDS011;52058;49.822;6.754;2023-04-24T11:01:24;5.32;;;3.10;;
65459;SDS011;52058;49.822;6.754;2023-04-24T11:03:55;5.13;;;2.90;;
65459;SDS011;52058;49.822;6.754;2023-04-24T11:06:28;3.45;;;3.05;;
65459;SDS011;52058;49.822;6.754;2023-04-24T11:08:59;4.30;;;2.60;;
65459;SDS011;52058;49.822;6.754;2023-04-24T11:11:28;5.00;;;2.78;;
65459;SDS011;52058;49.822;6.754;2023-04-24T11:14:05;2.95;;;2.65;;
65459;SDS011;52058;49.822;6.754;2023-04-24T11:16:34;4.13;;;3.15;;
65459;SDS011;52058;49.822;6.754;2023-04-24T11:19:05;3.58;;;2.85;;
65459;SDS011;52058;49.822;6.754;2023-04-24T11:21:40;3.95;;;2.95;;
65459;SDS011;52058;49.822;6.754;2023-04-24T11:24:26;3.63;;;2.97;;
65459;SDS011;52058;49.822;6.754;2023-04-24T11:26:54;6.40;;;3.83;;
65459;SDS011;52058;49.822;6.754;2023-04-24T11:29:22;6.93;;;3.17;;
65459;SDS011;52058;49.822;6.754;2023-04-24T11:32:13;5.55;;;3.15;;
65459;SDS011;52058;49.822;6.754;2023-04-24T11:34:45;5.07;;;2.72;;
65459;SDS011;52058;49.822;6.754;2023-04-24T11:37:13;5.05;;;2.80;;
65459;SDS011;52058;49.822;6.754;2023-04-24T11:39:40;3.05;;;2.58;;
65459;SDS011;52058;49.822;6.754;2023-04-24T11:42:07;5.05;;;3.10;;
65459;SDS011;52058;49.822;6.754;2023-04-24T11:44:34;3.53;;;3.15;;
65459;SDS011;52058;49.822;6.754;2023-04-24T11:47:02;4.00;;;3.10;;
65459;SDS011;52058;49.822;6.754;2023-04-24T11:49:29;4.50;;;3.38;;
65459;SDS011;52058;49.822;6.754;2023-04-24T11:51:57;7.95;;;3.78;;
65459;SDS011;52058;49.822;6.754;2023-04-24T11:54:23;3.55;;;2.72;;
65459;SDS011;52058;49.822;6.754;2023-04-24T11:56:50;4.32;;;3.40;;
65459;SDS011;52058;49.822;6.754;2023-04-24T11:59:16;6.32;;;3.85;;
65459;SDS011;52058;49.822;6.754;2023-04-24T12:01:43;5.32;;;4.10;;
65459;SDS011;52058;49.822;6.754;2023-04-24T12:04:11;3.92;;;2.92;;
65459;SDS011;52058;49.822;6.754;2023-04-24T12:06:38;5.55;;;3.63;;
65459;SDS011;52058;49.822;6.754;2023-04-24T12:09:06;4.22;;;3.00;;
65459;SDS011;52058;49.822;6.754;2023-04-24T12:11:34;9.55;;;5.50;;
65459;SDS011;52058;49.822;6.754;2023-04-24T12:14:09;4.72;;;3.40;;
65459;SDS011;52058;49.822;6.754;2023-04-24T12:16:36;4.82;;;3.17;;
65459;SDS011;52058;49.822;6.754;2023-04-24T12:19:04;5.22;;;3.60;;
65459;SDS011;52058;49.822;6.754;2023-04-24T12:21:31;5.45;;;3.67;;
65459;SDS011;52058;49.822;6.754;2023-04-24T12:23:57;8.88;;;4.53;;
65459;SDS011;52058;49.822;6.754;2023-04-24T12:26:26;4.88;;;3.60;;
65459;SDS011;52058;49.822;6.754;2023-04-24T12:28:54;7.50;;;4.35;;
65459;SDS011;52058;49.822;6.754;2023-04-24T12:31:21;7.45;;;3.65;;
65459;SDS011;52058;49.822;6.754;2023-04-24T12:33:48;5.55;;;3.60;;
65459;SDS011;52058;49.822;6.754;2023-04-24T12:36:15;5.30;;;3.35;;
65459;SDS011;52058;49.822;6.754;2023-04-24T12:38:43;6.75;;;4.18;;
65459;SDS011;52058;49.822;6.754;2023-04-24T12:41:11;6.85;;;3.63;;
65459;SDS011;52058;49.822;6.754;2023-04-24T12:43:51;6.78;;;3.55;;
65459;SDS011;52058;49.822;6.754;2023-04-24T12:46:18;4.85;;;4.03;;
65459;SDS011;52058;49.822;6.754;2023-04-24T12:48:45;6.40;;;3.78;;
65459;SDS011;52058;49.822;6.754;2023-04-24T12:51:14;4.90;;;3.70;;
65459;SDS011;52058;49.822;6.754;2023-04-24T12:53:41;4.18;;;3.38;;
65459;SDS011;52058;49.822;6.754;2023-04-24T12:56:07;7.05;;;4.63;;
65459;SDS011;52058;49.822;6.754;2023-04-24T12:58:34;8.57;;;4.72;;
65459;SDS011;52058;49.822;6.754;2023-04-24T13:01:02;4.43;;;3.75;;
65459;SDS011;52058;49.822;6.754;2023-04-24T13:03:29;4.65;;;3.40;;
65459;SDS011;52058;49.822;6.754;2023-04-24T13:05:55;5.47;;;3.70;;
65459;SDS011;52058;49.822;6.754;2023-04-24T13:08:22;5.97;;;3.33;;
65459;SDS011;52058;49.822;6.754;2023-04-24T13:10:49;5.53;;;3.42;;
65459;SDS011;52058;49.822;6.754;2023-04-24T13:13:16;4.40;;;3.10;;
65459;SDS011;52058;49.822;6.754;2023-04-24T13:15:42;5.47;;;3.17;;
65459;SDS011;52058;49.822;6.754;2023-04-24T13:18:12;4.55;;;3.38;;
65459;SDS011;52058;49.822;6.754;2023-04-24T13:20:39;5.30;;;3.40;;
65459;SDS011;52058;49.822;6.754;2023-04-24T13:23:06;4.43;;;3.35;;
65459;SDS011;52058;49.822;6.754;2023-04-24T13:25:34;4.45;;;3.50;;
65459;SDS011;52058;49.822;6.754;2023-04-24T13:28:02;4.85;;;3.17;;
65459;SDS011;52058;49.822;6.754;2023-04-24T13:30:28;4.28;;;3.30;;
65459;SDS011;52058;49.822;6.754;2023-04-24T13:32:55;6.00;;;3.40;;
65459;SDS011;52058;49.822;6.754;2023-04-24T13:35:23;6.10;;;4.07;;
65459;SDS011;52058;49.822;6.754;2023-04-24T13:37:52;4.78;;;3.60;;
65459;SDS011;52058;49.822;6.754;2023-04-24T13:40:19;8.25;;;4.07;;
65459;SDS011;52058;49.822;6.754;2023-04-24T13:42:46;5.38;;;3.75;;
65459;SDS011;52058;49.822;6.754;2023-04-24T13:45:12;5.88;;;3.58;;
65459;SDS011;52058;49.822;6.754;2023-04-24T13:47:39;4.22;;;3.20;;
65459;SDS011;52058;49.822;6.754;2023-04-24T13:50:07;3.50;;;3.17;;
65459;SDS011;52058;49.822;6.754;2023-04-24T13:52:35;5.63;;;4.07;;
65459;SDS011;52058;49.822;6.754;2023-04-24T13:55:02;4.80;;;3.47;;
65459;SDS011;52058;49.822;6.754;2023-04-24T13:57:29;5.47;;;3.15;;
65459;SDS011;52058;49.822;6.754;2023-04-24T13:59:57;3.90;;;3.50;;
65459;SDS011;52058;49.822;6.754;2023-04-24T14:02:26;4.82;;;3.40;;
65459;SDS011;52058;49.822;6.754;2023-04-24T14:04:53;3.88;;;3.20;;
65459;SDS011;52058;49.822;6.754;2023-04-24T14:07:19;3.22;;;2.92;;
65459;SDS011;52058;49.822;6.754;2023-04-24T14:09:48;5.63;;;3.60;;
65459;SDS011;52058;49.822;6.754;2023-04-24T14:12:14;4.15;;;3.25;;
65459;SDS011;52058;49.822;6.754;2023-04-24T14:14:44;3.65;;;3.10;;
65459;SDS011;52058;49.822;6.754;2023-04-24T14:17:11;4.68;;;3.40;;
65459;SDS011;52058;49.822;6.754;2023-04-24T14:19:38;4.38;;;2.95;;
65459;SDS011;52058;49.822;6.754;2023-04-24T14:22:05;3.20;;;2.90;;
65459;SDS011;52058;49.822;6.754;2023-04-24T14:24:31;5.05;;;3.08;;
65459;SDS011;52058;49.822;6.754;2023-04-24T14:26:59;5.07;;;2.97;;
65459;SDS011;52058;49.822;6.754;2023-04-24T14:29:26;4.35;;;3.00;;
65459;SDS011;52058;49.822;6.754;2023-04-24T14:31:52;4.40;;;3.13;;
65459;SDS011;52058;49.822;6.754;2023-04-24T14:34:19;4.40;;;2.80;;
65459;SDS011;52058;49.822;6.754;2023-04-24T14:36:46;5.82;;;3.35;;
65459;SDS011;52058;49.822;6.754;2023-04-24T14:39:12;7.55;;;3.58;;
65459;SDS011;52058;49.822;6.754;2023-04-24T14:41:39;5.13;;;3.60;;
65459;SDS011;52058;49.822;6.754;2023-04-24T14:44:07;5.10;;;3.55;;
65459;SDS011;52058;49.822;6.754;2023-04-24T14:46:33;3.28;;;2.88;;
65459;SDS011;52058;49.822;6.754;2023-04-24T14:49:00;4.72;;;2.65;;
65459;SDS011;52058;49.822;6.754;2023-04-24T14:51:27;4.93;;;2.70;;
65459;SDS011;52058;49.822;6.754;2023-04-24T14:53:53;3.70;;;2.35;;